createdAt,value
2018-12-09T00:00:14.511Z,0.60
2018-12-09T00:02:42.772Z,0.70
2018-12-09T00:05:11.705Z,0.50
2018-12-09T00:07:40.133Z,0.87
2018-12-09T00:10:08.996Z,0.73
2018-12-09T00:12:37.490Z,1.00
2018-12-09T00:15:06.045Z,0.80
2018-12-09T00:17:34.669Z,0.90
2018-12-09T00:20:03.024Z,0.70
2018-12-09T00:22:31.418Z,0.78
2018-12-09T00:25:00.843Z,0.60
2018-12-09T00:27:29.062Z,0.80
2018-12-09T00:29:57.528Z,0.60
2018-12-09T00:32:26.078Z,1.03
2018-12-09T00:34:54.412Z,0.80
2018-12-09T00:37:23.569Z,0.90
2018-12-09T00:39:51.998Z,1.07
2018-12-09T00:42:20.504Z,1.37
2018-12-09T00:44:48.820Z,1.30
2018-12-09T00:47:17.314Z,1.20
2018-12-09T00:49:45.613Z,1.20
2018-12-09T00:52:13.873Z,2.05
2018-12-09T00:54:42.295Z,1.70
2018-12-09T00:57:10.506Z,1.27
2018-12-09T00:59:38.763Z,1.73
2018-12-09T01:02:09.151Z,1.35
2018-12-09T01:04:37.594Z,1.92
2018-12-09T01:07:06.149Z,1.83
2018-12-09T01:09:34.667Z,1.43
2018-12-09T01:12:03.315Z,1.23
2018-12-09T01:14:31.695Z,3.07
2018-12-09T01:16:59.985Z,2.15
2018-12-09T01:19:28.228Z,1.87
2018-12-09T01:21:56.693Z,1.70
2018-12-09T01:24:24.987Z,2.07
2018-12-09T01:26:53.417Z,1.80
2018-12-09T01:29:21.926Z,1.72
2018-12-09T01:31:50.005Z,1.90
2018-12-09T01:34:18.383Z,1.90
2018-12-09T01:36:46.889Z,2.47
2018-12-09T01:39:14.953Z,1.87
2018-12-09T01:41:43.181Z,2.42
2018-12-09T01:44:11.336Z,2.43
2018-12-09T01:46:39.612Z,1.93
2018-12-09T01:49:07.684Z,1.87
2018-12-09T01:51:35.857Z,1.75
2018-12-09T01:54:11.372Z,2.15
2018-12-09T01:56:40.339Z,2.10
2018-12-09T01:59:08.610Z,1.23
2018-12-09T02:01:36.899Z,1.90
2018-12-09T02:04:05.249Z,2.30
2018-12-09T02:06:34.038Z,1.67
2018-12-09T02:09:03.880Z,1.70
2018-12-09T02:11:33.249Z,1.82
2018-12-09T02:14:01.460Z,2.10
2018-12-09T02:16:29.789Z,2.50
2018-12-09T02:19:18.639Z,1.72
2018-12-09T02:21:47.013Z,2.30
2018-12-09T02:24:16.211Z,2.15
2018-12-09T02:26:44.361Z,2.37
2018-12-09T02:29:12.521Z,2.60
2018-12-09T02:31:41.111Z,2.17
2018-12-09T02:34:09.404Z,1.98
2018-12-09T02:36:37.672Z,2.10
2018-12-09T02:39:08.156Z,2.87
2018-12-09T02:41:36.435Z,1.80
2018-12-09T02:44:04.886Z,1.47
2018-12-09T02:46:33.117Z,2.07
2018-12-09T02:49:01.576Z,1.87
2018-12-09T02:51:30.160Z,1.77
2018-12-09T02:53:58.392Z,1.40
2018-12-09T02:56:26.483Z,1.53
2018-12-09T02:58:54.916Z,1.10
2018-12-09T03:01:23.078Z,1.33
2018-12-09T03:03:51.298Z,1.40
2018-12-09T03:06:19.381Z,1.60
2018-12-09T03:08:47.713Z,0.93
2018-12-09T03:11:16.785Z,0.70
2018-12-09T03:13:44.994Z,0.88
2018-12-09T03:16:13.178Z,0.73
2018-12-09T03:18:41.422Z,1.20
2018-12-09T03:21:09.916Z,0.97
2018-12-09T03:23:38.052Z,1.30
2018-12-09T03:26:06.697Z,1.00
2018-12-09T03:28:35.056Z,1.00
2018-12-09T03:31:03.398Z,1.40
2018-12-09T03:33:31.686Z,1.27
2018-12-09T03:35:59.996Z,1.00
2018-12-09T03:54:33.921Z,0.70
2018-12-09T03:57:02.378Z,1.10
2018-12-09T03:59:30.674Z,2.12
2018-12-09T04:01:58.859Z,1.00
2018-12-09T04:04:27.178Z,1.00
2018-12-09T04:06:55.399Z,1.00
2018-12-09T04:09:23.559Z,1.47
2018-12-09T04:11:51.757Z,0.93
2018-12-09T04:14:19.829Z,2.25
2018-12-09T04:16:48.380Z,1.32
2018-12-09T04:19:17.081Z,1.50
2018-12-09T04:21:45.181Z,1.25
2018-12-09T04:24:13.370Z,1.70
2018-12-09T04:26:41.545Z,1.10
2018-12-09T04:29:09.832Z,0.88
2018-12-09T04:31:37.947Z,0.90
2018-12-09T04:34:06.201Z,0.80
2018-12-09T04:36:34.486Z,1.30
2018-12-09T04:39:05.561Z,0.82
2018-12-09T04:41:33.731Z,0.75
2018-12-09T04:44:01.874Z,1.15
2018-12-09T04:46:29.960Z,1.02
2018-12-09T04:48:58.157Z,1.00
2018-12-09T04:51:42.033Z,0.80
2018-12-09T04:54:10.243Z,0.60
2018-12-09T04:56:38.486Z,0.85
2018-12-09T04:59:16.466Z,0.82
2018-12-09T05:01:45.141Z,0.70
2018-12-09T05:04:13.507Z,0.70
2018-12-09T05:06:41.785Z,0.80
2018-12-09T05:09:09.874Z,1.02
2018-12-09T05:11:38.032Z,0.90
2018-12-09T05:14:06.529Z,1.22
2018-12-09T05:16:34.808Z,0.75
2018-12-09T05:19:03.374Z,1.07
2018-12-09T05:21:31.746Z,0.70
2018-12-09T05:23:59.921Z,1.07
2018-12-09T05:26:27.991Z,0.80
2018-12-09T05:28:56.159Z,0.70
2018-12-09T05:31:24.280Z,0.90
2018-12-09T05:33:52.573Z,0.95
2018-12-09T05:36:20.827Z,0.95
2018-12-09T05:38:49.128Z,1.00
2018-12-09T05:41:17.456Z,0.80
2018-12-09T05:43:46.224Z,0.80
2018-12-09T05:46:14.785Z,1.00
2018-12-09T05:48:43.198Z,0.90
2018-12-09T05:51:11.327Z,0.85
2018-12-09T05:53:39.569Z,0.90
2018-12-09T05:56:07.742Z,0.80
2018-12-09T05:58:36.006Z,1.37
2018-12-09T06:01:04.293Z,2.65
2018-12-09T06:03:32.630Z,3.75
2018-12-09T06:06:00.725Z,7.78
2018-12-09T06:08:28.997Z,13.68
2018-12-09T06:10:57.186Z,19.73
2018-12-09T06:13:25.969Z,20.23
2018-12-09T06:15:54.113Z,15.45
2018-12-09T06:18:22.317Z,12.85
2018-12-09T06:20:50.617Z,10.32
2018-12-09T06:23:18.830Z,8.73
2018-12-09T06:25:47.233Z,6.85
2018-12-09T06:28:15.336Z,6.15
2018-12-09T06:30:43.555Z,3.67
2018-12-09T06:33:11.680Z,3.50
2018-12-09T06:35:39.754Z,3.20
2018-12-09T06:38:08.067Z,2.45
2018-12-09T06:40:36.461Z,1.50
2018-12-09T06:43:04.653Z,1.20
2018-12-09T06:45:32.709Z,1.60
2018-12-09T06:48:00.830Z,1.85
2018-12-09T06:50:29.167Z,1.10
2018-12-09T06:52:57.398Z,1.30
2018-12-09T06:55:25.503Z,1.10
2018-12-09T06:57:53.604Z,1.50
2018-12-09T07:00:21.958Z,1.12
2018-12-09T07:02:50.595Z,1.55
2018-12-09T07:05:18.886Z,1.30
2018-12-09T07:07:47.052Z,1.50
2018-12-09T07:10:15.402Z,1.40
2018-12-09T07:12:43.671Z,1.50
2018-12-09T07:15:12.267Z,1.57
2018-12-09T07:17:40.527Z,1.45
2018-12-09T07:20:09.013Z,1.27
2018-12-09T07:22:36.993Z,1.32
2018-12-09T07:25:05.637Z,1.27
2018-12-09T07:27:34.318Z,1.77
2018-12-09T07:30:02.905Z,1.12
2018-12-09T07:32:31.077Z,1.65
2018-12-09T07:34:59.189Z,1.70
2018-12-09T07:37:27.258Z,1.92
2018-12-09T07:39:55.774Z,1.82
2018-12-09T07:42:23.831Z,1.67
2018-12-09T07:44:51.954Z,1.80
2018-12-09T07:47:20.119Z,1.55
2018-12-09T07:49:48.246Z,1.50
2018-12-09T07:52:16.563Z,1.72
2018-12-09T07:54:44.641Z,1.55
2018-12-09T07:57:12.691Z,1.77
2018-12-09T07:59:40.785Z,1.75
2018-12-09T08:02:09.007Z,1.87
2018-12-09T08:04:37.145Z,1.95
2018-12-09T08:07:05.431Z,1.77
2018-12-09T08:09:33.554Z,1.80
2018-12-09T08:12:01.695Z,1.05
2018-12-09T08:14:29.855Z,1.80
2018-12-09T08:16:57.950Z,1.85
2018-12-09T08:19:26.013Z,1.40
2018-12-09T08:21:54.231Z,1.10
2018-12-09T08:24:22.352Z,1.17
2018-12-09T08:26:50.507Z,1.60
2018-12-09T08:29:18.652Z,1.35
2018-12-09T08:31:46.778Z,1.10
2018-12-09T08:34:14.909Z,1.55
2018-12-09T08:36:43.099Z,1.65
2018-12-09T08:39:11.214Z,1.45
2018-12-09T08:41:39.788Z,1.82
2018-12-09T08:44:07.893Z,1.57
2018-12-09T08:46:36.064Z,1.32
2018-12-09T08:49:04.137Z,1.75
2018-12-09T08:51:32.399Z,1.20
2018-12-09T08:54:02.763Z,2.05
2018-12-09T08:56:31.031Z,2.30
2018-12-09T08:58:59.230Z,1.67
2018-12-09T09:01:27.446Z,2.27
2018-12-09T09:03:55.679Z,1.05
2018-12-09T09:06:23.787Z,1.40
2018-12-09T09:08:52.085Z,1.57
2018-12-09T09:11:20.462Z,2.50
2018-12-09T09:13:48.607Z,1.35
2018-12-09T09:16:16.735Z,1.40
2018-12-09T09:18:44.844Z,1.45
2018-12-09T09:21:12.983Z,1.45
2018-12-09T09:23:41.227Z,1.22
2018-12-09T09:26:09.446Z,2.33
2018-12-09T09:28:37.619Z,1.92
2018-12-09T09:31:05.730Z,1.45
2018-12-09T09:33:33.923Z,1.37
2018-12-09T09:36:02.329Z,1.45
2018-12-09T09:38:30.469Z,1.62
2018-12-09T09:43:38.078Z,1.42
2018-12-09T09:46:06.253Z,1.67
2018-12-09T09:48:34.453Z,1.42
2018-12-09T09:51:03.010Z,0.90
2018-12-09T09:53:31.327Z,1.22
2018-12-09T09:55:59.753Z,1.95
2018-12-09T09:58:28.011Z,0.98
2018-12-09T10:00:56.295Z,0.70
2018-12-09T10:03:25.966Z,0.70
2018-12-09T10:05:54.687Z,1.20
2018-12-09T10:08:23.009Z,0.70
2018-12-09T10:10:51.363Z,0.80
2018-12-09T10:13:19.970Z,0.78
2018-12-09T10:15:48.222Z,1.52
2018-12-09T10:18:16.356Z,0.90
2018-12-09T10:20:44.674Z,1.27
2018-12-09T10:23:12.905Z,1.27
2018-12-09T10:25:41.035Z,1.17
2018-12-09T10:28:09.195Z,0.85
2018-12-09T10:30:37.366Z,0.70
2018-12-09T10:33:05.639Z,0.70
2018-12-09T10:35:34.220Z,0.60
2018-12-09T10:38:02.494Z,0.78
2018-12-09T10:40:30.710Z,0.93
2018-12-09T10:42:58.882Z,0.80
2018-12-09T10:45:27.091Z,0.70
2018-12-09T10:47:55.606Z,1.00
2018-12-09T10:50:23.763Z,0.70
2018-12-09T10:52:52.208Z,0.60
2018-12-09T10:55:20.373Z,0.62
2018-12-09T10:57:48.597Z,0.60
2018-12-09T11:00:21.400Z,1.05
2018-12-09T11:02:49.637Z,0.60
2018-12-09T11:05:17.800Z,0.70
2018-12-09T11:07:46.049Z,1.45
2018-12-09T11:10:14.304Z,0.80
2018-12-09T11:12:42.474Z,1.30
2018-12-09T11:15:10.570Z,0.80
2018-12-09T11:17:38.725Z,0.78
2018-12-09T11:20:07.070Z,0.85
2018-12-09T11:22:35.309Z,0.55
2018-12-09T11:25:04.176Z,1.00
2018-12-09T11:27:32.418Z,0.90
2018-12-09T11:30:00.568Z,0.60
2018-12-09T11:32:28.882Z,1.00
2018-12-09T11:34:57.040Z,0.93
2018-12-09T11:37:25.181Z,0.93
2018-12-09T11:39:53.520Z,0.78
2018-12-09T11:42:21.704Z,1.07
2018-12-09T11:44:49.891Z,0.75
2018-12-09T11:47:18.123Z,0.75
2018-12-09T11:49:46.289Z,0.68
2018-12-09T11:52:14.607Z,0.90
2018-12-09T11:54:42.923Z,0.95
2018-12-09T11:57:11.913Z,1.00
2018-12-09T11:59:40.787Z,1.00
2018-12-09T12:02:08.969Z,1.10
2018-12-09T12:04:37.201Z,1.02
2018-12-09T12:07:05.401Z,1.00
2018-12-09T12:09:33.727Z,1.30
2018-12-09T12:12:01.988Z,1.20
2018-12-09T12:14:30.368Z,1.02
2018-12-09T12:16:58.613Z,1.45
2018-12-09T12:19:26.802Z,1.40
2018-12-09T12:21:55.494Z,1.30
2018-12-09T12:24:23.634Z,1.10
2018-12-09T12:26:51.900Z,1.25
2018-12-09T12:29:20.091Z,1.12
2018-12-09T12:31:48.400Z,1.10
2018-12-09T12:34:16.714Z,1.20
2018-12-09T12:36:44.878Z,1.20
2018-12-09T12:39:13.096Z,0.80
2018-12-09T12:41:41.342Z,1.32
2018-12-09T12:44:09.766Z,1.10
2018-12-09T12:46:38.032Z,1.20
2018-12-09T12:49:06.380Z,1.20
2018-12-09T12:51:34.848Z,0.70
2018-12-09T12:54:03.158Z,1.95
2018-12-09T12:56:31.543Z,0.90
2018-12-09T12:58:59.840Z,0.90
2018-12-09T13:01:28.101Z,0.72
2018-12-09T13:03:56.414Z,1.15
2018-12-09T13:06:25.471Z,0.90
2018-12-09T13:08:53.858Z,2.10
2018-12-09T13:11:22.195Z,0.75
2018-12-09T13:13:50.412Z,1.20
2018-12-09T13:16:18.655Z,0.80
2018-12-09T13:18:46.891Z,1.25
2018-12-09T13:21:15.114Z,1.15
2018-12-09T13:23:43.392Z,0.90
2018-12-09T13:26:11.947Z,1.10
2018-12-09T13:28:40.201Z,2.20
2018-12-09T13:31:08.432Z,2.05
2018-12-09T13:33:36.982Z,1.57
2018-12-09T13:36:06.935Z,2.65
2018-12-09T13:38:35.231Z,4.30
2018-12-09T13:41:03.660Z,4.08
2018-12-09T13:43:32.103Z,2.85
2018-12-09T13:46:01.014Z,0.70
2018-12-09T13:48:30.201Z,0.60
2018-12-09T13:50:58.859Z,0.70
2018-12-09T13:53:27.432Z,0.50
2018-12-09T13:55:56.078Z,0.60
2018-12-09T13:58:24.598Z,0.60
2018-12-09T14:00:53.178Z,0.55
2018-12-09T14:03:21.903Z,0.60
2018-12-09T14:05:50.280Z,0.60
2018-12-09T14:08:18.594Z,0.60
2018-12-09T14:10:46.838Z,0.60
2018-12-09T14:13:15.046Z,0.60
2018-12-09T14:15:43.243Z,0.80
2018-12-09T14:18:11.617Z,1.10
2018-12-09T14:20:39.852Z,0.75
2018-12-09T14:23:08.369Z,0.78
2018-12-09T14:25:36.632Z,0.70
2018-12-09T14:28:04.916Z,0.50
2018-12-09T14:30:33.332Z,0.70
2018-12-09T14:33:01.813Z,1.10
2018-12-09T14:35:29.985Z,0.70
2018-12-09T14:37:58.251Z,1.00
2018-12-09T14:40:26.448Z,0.90
2018-12-09T14:42:54.685Z,1.12
2018-12-09T14:45:23.115Z,0.90
2018-12-09T14:47:51.366Z,1.65
2018-12-09T14:50:22.379Z,0.90
2018-12-09T14:52:50.676Z,0.80
2018-12-09T14:55:18.865Z,0.70
2018-12-09T14:57:47.165Z,0.95
2018-12-09T15:00:15.577Z,0.90
2018-12-09T15:02:43.810Z,0.90
2018-12-09T15:05:12.117Z,1.10
2018-12-09T15:07:41.297Z,1.35
2018-12-09T15:10:09.797Z,0.90
2018-12-09T15:12:38.336Z,0.90
2018-12-09T15:15:07.136Z,1.05
2018-12-09T15:17:35.531Z,0.98
2018-12-09T15:20:04.544Z,0.90
2018-12-09T15:22:32.764Z,0.80
2018-12-09T15:25:01.314Z,0.80
2018-12-09T15:27:29.726Z,0.72
2018-12-09T15:29:58.004Z,0.80
2018-12-09T15:32:26.158Z,1.05
2018-12-09T15:34:54.595Z,0.98
2018-12-09T15:37:22.825Z,0.80
2018-12-09T15:39:51.199Z,1.15
2018-12-09T15:42:19.430Z,0.85
2018-12-09T15:44:47.750Z,0.88
2018-12-09T15:47:16.125Z,0.98
2018-12-09T15:49:44.560Z,0.95
2018-12-09T15:52:13.179Z,1.22
2018-12-09T15:54:41.681Z,1.42
2018-12-09T15:57:09.906Z,1.00
2018-12-09T15:59:38.253Z,1.15
2018-12-09T16:02:06.599Z,0.95
2018-12-09T16:04:35.126Z,1.20
2018-12-09T16:07:03.623Z,0.82
2018-12-09T16:09:32.670Z,1.07
2018-12-09T16:12:01.165Z,1.25
2018-12-09T16:14:29.701Z,0.90
2018-12-09T16:16:58.066Z,1.00
2018-12-09T16:19:26.298Z,0.60
2018-12-09T16:21:54.588Z,1.27
2018-12-09T16:24:22.994Z,1.00
2018-12-09T16:26:51.580Z,0.70
2018-12-09T16:29:19.927Z,1.20
2018-12-09T16:31:48.892Z,0.70
2018-12-09T16:34:17.293Z,0.70
2018-12-09T16:36:45.923Z,0.80
2018-12-09T16:39:14.221Z,0.70
2018-12-09T16:41:42.760Z,0.60
2018-12-09T16:44:11.227Z,0.70
2018-12-09T16:46:40.043Z,0.62
2018-12-09T16:49:08.404Z,1.02
2018-12-09T16:51:36.771Z,0.90
2018-12-09T16:54:05.274Z,1.02
2018-12-09T16:56:33.566Z,0.90
2018-12-09T16:59:01.903Z,1.00
2018-12-09T17:01:30.527Z,1.20
2018-12-09T17:03:58.798Z,1.07
2018-12-09T17:06:27.207Z,1.10
2018-12-09T17:08:55.562Z,1.10
2018-12-09T17:11:23.799Z,1.30
2018-12-09T17:13:52.138Z,1.65
2018-12-09T17:16:20.514Z,1.47
2018-12-09T17:18:49.656Z,1.35
2018-12-09T17:21:18.011Z,1.35
2018-12-09T17:23:46.381Z,1.12
2018-12-09T17:26:14.682Z,1.30
2018-12-09T17:28:43.587Z,1.55
2018-12-09T17:31:12.561Z,1.10
2018-12-09T17:33:40.955Z,1.00
2018-12-09T17:36:09.300Z,1.10
2018-12-09T17:38:37.536Z,1.27
2018-12-09T17:41:05.797Z,1.40
2018-12-09T17:43:34.123Z,1.70
2018-12-09T17:46:02.412Z,1.35
2018-12-09T17:48:30.855Z,1.32
2018-12-09T17:50:59.076Z,1.50
2018-12-09T17:53:27.431Z,1.70
2018-12-09T17:55:55.826Z,1.85
2018-12-09T17:58:24.229Z,1.50
2018-12-09T18:00:52.811Z,1.45
2018-12-09T18:03:21.236Z,1.20
2018-12-09T18:05:49.552Z,1.75
2018-12-09T18:08:17.896Z,1.70
2018-12-09T18:10:46.183Z,1.47
2018-12-09T18:13:14.613Z,1.45
2018-12-09T18:15:45.051Z,1.40
2018-12-09T18:18:13.386Z,1.42
2018-12-09T18:20:41.631Z,1.70
2018-12-09T18:23:09.919Z,1.57
2018-12-09T18:25:38.414Z,1.40
2018-12-09T18:28:06.677Z,2.10
2018-12-09T18:30:35.140Z,1.32
2018-12-09T18:33:03.406Z,1.50
2018-12-09T18:35:31.824Z,1.20
2018-12-09T18:38:00.131Z,1.40
2018-12-09T18:40:28.644Z,1.20
2018-12-09T18:42:57.065Z,1.47
2018-12-09T18:45:25.616Z,1.45
2018-12-09T18:47:53.895Z,1.47
2018-12-09T18:50:22.261Z,1.50
2018-12-09T18:52:50.580Z,1.35
2018-12-09T18:55:21.195Z,1.40
2018-12-09T18:57:49.439Z,1.35
2018-12-09T19:00:17.879Z,1.22
2018-12-09T19:02:46.342Z,1.60
2018-12-09T19:05:14.702Z,2.00
2018-12-09T19:07:43.426Z,1.52
2018-12-09T19:10:13.997Z,1.90
2018-12-09T19:12:42.409Z,1.25
2018-12-09T19:15:11.410Z,1.55
2018-12-09T19:17:40.003Z,2.12
2018-12-09T19:20:08.661Z,1.52
2018-12-09T19:22:37.067Z,1.25
2018-12-09T19:25:06.290Z,1.80
2018-12-09T19:27:35.007Z,1.45
2018-12-09T19:30:03.894Z,2.27
2018-12-09T19:32:32.246Z,1.70
2018-12-09T19:35:01.320Z,2.08
2018-12-09T19:37:29.655Z,1.55
2018-12-09T19:39:57.929Z,1.10
2018-12-09T19:42:26.229Z,1.37
2018-12-09T19:44:54.512Z,2.33
2018-12-09T19:47:22.836Z,1.72
2018-12-09T19:49:51.015Z,2.15
2018-12-09T19:52:19.319Z,2.00
2018-12-09T19:54:47.576Z,1.80
2018-12-09T19:57:15.932Z,1.05
2018-12-09T19:59:44.269Z,1.95
2018-12-09T20:02:12.768Z,1.67
2018-12-09T20:04:41.199Z,2.33
2018-12-09T20:07:09.717Z,1.77
2018-12-09T20:09:38.202Z,2.20
2018-12-09T20:12:06.800Z,2.30
2018-12-09T20:14:35.092Z,1.90
2018-12-09T20:17:03.457Z,1.50
2018-12-09T20:19:31.734Z,1.65
2018-12-09T20:22:00.291Z,1.85
2018-12-09T20:24:28.750Z,1.80
2018-12-09T20:26:57.162Z,1.87
2018-12-09T20:29:25.439Z,1.57
2018-12-09T20:31:53.855Z,2.60
2018-12-09T20:34:22.106Z,1.90
2018-12-09T20:36:50.647Z,1.30
2018-12-09T20:39:19.057Z,1.70
2018-12-09T20:41:47.249Z,1.95
2018-12-09T20:44:15.593Z,1.40
2018-12-09T20:46:43.907Z,1.65
2018-12-09T20:49:12.313Z,1.75
2018-12-09T20:51:40.524Z,1.57
2018-12-09T20:54:09.363Z,1.55
2018-12-09T20:56:37.719Z,1.50
2018-12-09T20:59:06.002Z,1.50
2018-12-09T21:01:34.371Z,1.98
2018-12-09T21:04:02.664Z,1.20
2018-12-09T21:06:31.310Z,1.40
2018-12-09T21:08:59.605Z,1.70
2018-12-09T21:11:27.925Z,0.85
2018-12-09T21:13:56.151Z,1.50
2018-12-09T21:16:24.382Z,1.25
2018-12-09T21:18:52.569Z,1.40
2018-12-09T21:21:20.896Z,1.00
2018-12-09T21:23:49.218Z,1.60
2018-12-09T21:26:17.732Z,1.45
2018-12-09T21:28:46.017Z,1.62
2018-12-09T21:31:14.368Z,1.20
2018-12-09T21:33:42.622Z,1.98
2018-12-09T21:36:10.937Z,1.12
2018-12-09T21:38:39.556Z,1.60
2018-12-09T21:41:07.986Z,1.20
2018-12-09T21:43:36.172Z,1.50
2018-12-09T21:46:04.646Z,1.82
2018-12-09T21:48:32.878Z,3.83
2018-12-09T21:51:01.172Z,1.82
2018-12-09T21:53:29.501Z,1.98
2018-12-09T21:55:57.704Z,1.52
2018-12-09T21:58:26.021Z,1.50
2018-12-09T22:00:54.231Z,1.70
2018-12-09T22:03:22.364Z,1.50
2018-12-09T22:05:50.690Z,1.55
2018-12-09T22:08:19.018Z,2.12
2018-12-09T22:10:47.530Z,1.95
2018-12-09T22:13:15.975Z,1.90
2018-12-09T22:15:44.080Z,1.82
2018-12-09T22:18:12.253Z,1.32
2018-12-09T22:20:40.668Z,1.55
2018-12-09T22:23:08.901Z,2.08
2018-12-09T22:25:37.064Z,1.87
2018-12-09T22:28:05.201Z,1.42
2018-12-09T22:30:33.352Z,1.75
2018-12-09T22:33:01.546Z,2.20
2018-12-09T22:35:29.752Z,2.15
2018-12-09T22:37:58.393Z,1.75
2018-12-09T22:40:26.525Z,2.42
2018-12-09T22:42:54.849Z,2.52
2018-12-09T22:45:22.948Z,1.82
2018-12-09T22:47:51.344Z,2.30
2018-12-09T22:50:20.308Z,2.42
2018-12-09T22:52:48.422Z,2.05
2018-12-09T22:55:16.658Z,2.12
2018-12-09T22:57:44.900Z,2.00
2018-12-09T23:00:23.426Z,1.90
2018-12-09T23:02:57.682Z,2.15
2018-12-09T23:05:25.910Z,2.22
2018-12-09T23:07:54.887Z,1.70
2018-12-09T23:10:23.085Z,2.42
2018-12-09T23:12:51.276Z,1.70
2018-12-09T23:15:19.604Z,2.30
2018-12-09T23:17:47.976Z,2.00
2018-12-09T23:20:16.360Z,2.27
2018-12-09T23:22:44.518Z,2.98
2018-12-09T23:25:12.663Z,2.35
2018-12-09T23:27:40.821Z,2.00
2018-12-09T23:30:10.070Z,3.17
2018-12-09T23:32:38.253Z,1.90
2018-12-09T23:35:07.666Z,2.05
2018-12-09T23:37:35.993Z,2.50
2018-12-09T23:40:06.905Z,1.80
2018-12-09T23:42:35.275Z,2.02
2018-12-09T23:45:04.547Z,2.05
2018-12-09T23:47:32.955Z,2.60
2018-12-09T23:50:01.980Z,1.92
2018-12-09T23:52:30.212Z,3.58
2018-12-09T23:54:58.897Z,2.42
2018-12-09T23:57:27.058Z,1.70
2018-12-09T23:59:55.244Z,2.47
